sensor_id;sensor_type;location;lat;lon;timestamp;P1;durP1;ratioP1;P2;durP2;ratioP2
12163;SDS011;6145;50.192;10.064;2024-01-07T00:01:06;10.70;;;7.00;;
12163;SDS011;6145;50.192;10.064;2024-01-07T00:03:35;8.73;;;6.03;;
12163;SDS011;6145;50.192;10.064;2024-01-07T00:06:01;7.73;;;6.33;;
12163;SDS011;6145;50.192;10.064;2024-01-07T00:08:28;9.33;;;6.33;;
12163;SDS011;6145;50.192;10.064;2024-01-07T00:10:55;6.80;;;5.53;;
12163;SDS011;6145;50.192;10.064;2024-01-07T00:13:23;10.97;;;6.80;;
12163;SDS011;6145;50.192;10.064;2024-01-07T00:15:50;9.73;;;6.43;;
12163;SDS011;6145;50.192;10.064;2024-01-07T00:18:18;9.17;;;6.10;;
12163;SDS011;6145;50.192;10.064;2024-01-07T00:20:45;9.43;;;6.10;;
12163;SDS011;6145;50.192;10.064;2024-01-07T00:23:12;16.23;;;6.73;;
12163;SDS011;6145;50.192;10.064;2024-01-07T00:25:39;11.83;;;6.67;;
12163;SDS011;6145;50.192;10.064;2024-01-07T00:28:06;11.60;;;8.03;;
12163;SDS011;6145;50.192;10.064;2024-01-07T00:30:34;9.00;;;7.20;;
12163;SDS011;6145;50.192;10.064;2024-01-07T00:33:01;10.47;;;6.53;;
12163;SDS011;6145;50.192;10.064;2024-01-07T00:35:28;11.23;;;6.30;;
12163;SDS011;6145;50.192;10.064;2024-01-07T00:37:55;10.37;;;7.27;;
12163;SDS011;6145;50.192;10.064;2024-01-07T00:40:22;9.40;;;6.30;;
12163;SDS011;6145;50.192;10.064;2024-01-07T00:42:49;7.83;;;6.40;;
12163;SDS011;6145;50.192;10.064;2024-01-07T00:45:16;9.20;;;6.47;;
12163;SDS011;6145;50.192;10.064;2024-01-07T00:47:44;9.70;;;7.37;;
12163;SDS011;6145;50.192;10.064;2024-01-07T00:50:11;9.03;;;6.97;;
12163;SDS011;6145;50.192;10.064;2024-01-07T00:52:37;8.93;;;6.77;;
12163;SDS011;6145;50.192;10.064;2024-01-07T00:55:04;12.07;;;7.77;;
12163;SDS011;6145;50.192;10.064;2024-01-07T00:57:32;12.30;;;7.53;;
12163;SDS011;6145;50.192;10.064;2024-01-07T00:59:59;10.23;;;7.23;;
12163;SDS011;6145;50.192;10.064;2024-01-07T01:02:30;12.97;;;8.53;;
12163;SDS011;6145;50.192;10.064;2024-01-07T01:04:58;13.80;;;10.47;;
12163;SDS011;6145;50.192;10.064;2024-01-07T01:07:25;13.13;;;7.33;;
12163;SDS011;6145;50.192;10.064;2024-01-07T01:09:52;13.07;;;8.77;;
12163;SDS011;6145;50.192;10.064;2024-01-07T01:12:19;14.43;;;9.33;;
12163;SDS011;6145;50.192;10.064;2024-01-07T01:14:45;13.70;;;10.73;;
12163;SDS011;6145;50.192;10.064;2024-01-07T01:17:12;14.17;;;10.73;;
12163;SDS011;6145;50.192;10.064;2024-01-07T01:19:39;16.30;;;10.63;;
12163;SDS011;6145;50.192;10.064;2024-01-07T01:22:07;16.00;;;9.13;;
12163;SDS011;6145;50.192;10.064;2024-01-07T01:24:34;12.33;;;8.10;;
12163;SDS011;6145;50.192;10.064;2024-01-07T01:27:01;13.30;;;8.50;;
12163;SDS011;6145;50.192;10.064;2024-01-07T01:29:28;16.87;;;9.97;;
12163;SDS011;6145;50.192;10.064;2024-01-07T01:31:54;11.10;;;7.90;;
12163;SDS011;6145;50.192;10.064;2024-01-07T01:34:22;13.00;;;9.00;;
12163;SDS011;6145;50.192;10.064;2024-01-07T01:36:49;13.93;;;9.00;;
12163;SDS011;6145;50.192;10.064;2024-01-07T01:39:17;14.03;;;8.80;;
12163;SDS011;6145;50.192;10.064;2024-01-07T01:41:44;13.77;;;8.13;;
12163;SDS011;6145;50.192;10.064;2024-01-07T01:44:11;13.93;;;8.53;;
12163;SDS011;6145;50.192;10.064;2024-01-07T01:46:38;16.70;;;9.60;;
12163;SDS011;6145;50.192;10.064;2024-01-07T01:49:05;12.80;;;9.33;;
12163;SDS011;6145;50.192;10.064;2024-01-07T01:51:32;15.13;;;9.10;;
12163;SDS011;6145;50.192;10.064;2024-01-07T01:54:00;9.97;;;7.47;;
12163;SDS011;6145;50.192;10.064;2024-01-07T01:56:30;12.53;;;8.37;;
12163;SDS011;6145;50.192;10.064;2024-01-07T01:58:57;14.57;;;9.23;;
12163;SDS011;6145;50.192;10.064;2024-01-07T02:01:24;11.60;;;8.40;;
12163;SDS011;6145;50.192;10.064;2024-01-07T02:03:51;14.60;;;8.13;;
12163;SDS011;6145;50.192;10.064;2024-01-07T02:06:19;14.20;;;8.73;;
12163;SDS011;6145;50.192;10.064;2024-01-07T02:08:46;11.20;;;7.97;;
12163;SDS011;6145;50.192;10.064;2024-01-07T02:11:15;11.43;;;7.63;;
12163;SDS011;6145;50.192;10.064;2024-01-07T02:13:44;11.60;;;7.73;;
12163;SDS011;6145;50.192;10.064;2024-01-07T02:16:11;12.27;;;7.60;;
12163;SDS011;6145;50.192;10.064;2024-01-07T02:18:39;10.47;;;6.37;;
12163;SDS011;6145;50.192;10.064;2024-01-07T02:21:07;11.67;;;7.43;;
12163;SDS011;6145;50.192;10.064;2024-01-07T02:23:35;12.47;;;9.93;;
12163;SDS011;6145;50.192;10.064;2024-01-07T02:26:03;13.17;;;8.80;;
12163;SDS011;6145;50.192;10.064;2024-01-07T02:28:31;11.30;;;7.50;;
12163;SDS011;6145;50.192;10.064;2024-01-07T02:30:58;10.97;;;7.50;;
12163;SDS011;6145;50.192;10.064;2024-01-07T02:33:24;8.87;;;6.30;;
12163;SDS011;6145;50.192;10.064;2024-01-07T02:35:51;12.43;;;7.63;;
12163;SDS011;6145;50.192;10.064;2024-01-07T02:38:18;8.63;;;6.87;;
12163;SDS011;6145;50.192;10.064;2024-01-07T02:40:45;13.37;;;7.80;;
12163;SDS011;6145;50.192;10.064;2024-01-07T02:43:13;11.50;;;8.60;;
12163;SDS011;6145;50.192;10.064;2024-01-07T02:45:40;14.00;;;7.63;;
12163;SDS011;6145;50.192;10.064;2024-01-07T02:48:08;13.20;;;7.60;;
12163;SDS011;6145;50.192;10.064;2024-01-07T02:50:35;11.63;;;7.50;;
12163;SDS011;6145;50.192;10.064;2024-01-07T02:53:01;9.33;;;5.80;;
12163;SDS011;6145;50.192;10.064;2024-01-07T02:55:28;12.77;;;6.80;;
12163;SDS011;6145;50.192;10.064;2024-01-07T02:57:55;11.27;;;6.10;;
12163;SDS011;6145;50.192;10.064;2024-01-07T03:00:23;13.87;;;7.43;;
12163;SDS011;6145;50.192;10.064;2024-01-07T03:02:50;9.67;;;6.50;;
12163;SDS011;6145;50.192;10.064;2024-01-07T03:05:18;10.40;;;6.83;;
12163;SDS011;6145;50.192;10.064;2024-01-07T03:07:44;10.27;;;5.23;;
12163;SDS011;6145;50.192;10.064;2024-01-07T03:10:11;9.83;;;6.40;;
12163;SDS011;6145;50.192;10.064;2024-01-07T03:12:38;7.30;;;4.77;;
12163;SDS011;6145;50.192;10.064;2024-01-07T03:15:05;8.53;;;5.97;;
12163;SDS011;6145;50.192;10.064;2024-01-07T03:17:35;9.17;;;6.23;;
12163;SDS011;6145;50.192;10.064;2024-01-07T03:20:02;6.10;;;4.03;;
12163;SDS011;6145;50.192;10.064;2024-01-07T03:22:29;8.17;;;5.30;;
12163;SDS011;6145;50.192;10.064;2024-01-07T03:24:56;10.47;;;6.77;;
12163;SDS011;6145;50.192;10.064;2024-01-07T03:27:22;9.43;;;5.37;;
12163;SDS011;6145;50.192;10.064;2024-01-07T03:29:49;8.20;;;5.60;;
12163;SDS011;6145;50.192;10.064;2024-01-07T03:32:16;7.20;;;5.10;;
12163;SDS011;6145;50.192;10.064;2024-01-07T03:34:45;8.63;;;6.23;;
12163;SDS011;6145;50.192;10.064;2024-01-07T03:37:11;6.87;;;5.50;;
12163;SDS011;6145;50.192;10.064;2024-01-07T03:39:38;10.20;;;6.23;;
12163;SDS011;6145;50.192;10.064;2024-01-07T03:42:05;3.70;;;3.23;;
12163;SDS011;6145;50.192;10.064;2024-01-07T03:44:36;7.33;;;5.43;;
12163;SDS011;6145;50.192;10.064;2024-01-07T03:47:03;6.60;;;3.57;;
12163;SDS011;6145;50.192;10.064;2024-01-07T03:49:30;7.87;;;5.00;;
12163;SDS011;6145;50.192;10.064;2024-01-07T03:51:58;7.83;;;5.97;;
12163;SDS011;6145;50.192;10.064;2024-01-07T03:54:25;12.73;;;7.23;;
12163;SDS011;6145;50.192;10.064;2024-01-07T03:56:52;10.03;;;6.57;;
12163;SDS011;6145;50.192;10.064;2024-01-07T03:59:18;9.53;;;6.20;;
12163;SDS011;6145;50.192;10.064;2024-01-07T04:01:47;6.87;;;4.63;;
12163;SDS011;6145;50.192;10.064;2024-01-07T04:04:14;10.83;;;7.10;;
12163;SDS011;6145;50.192;10.064;2024-01-07T04:06:41;9.03;;;6.67;;
12163;SDS011;6145;50.192;10.064;2024-01-07T04:09:09;9.27;;;6.23;;
12163;SDS011;6145;50.192;10.064;2024-01-07T04:11:38;9.13;;;5.40;;
12163;SDS011;6145;50.192;10.064;2024-01-07T04:14:06;9.43;;;6.33;;
12163;SDS011;6145;50.192;10.064;2024-01-07T04:16:33;6.10;;;2.97;;
12163;SDS011;6145;50.192;10.064;2024-01-07T04:19:01;9.17;;;5.87;;
12163;SDS011;6145;50.192;10.064;2024-01-07T04:21:27;9.23;;;3.83;;
12163;SDS011;6145;50.192;10.064;2024-01-07T04:23:54;8.70;;;5.00;;
12163;SDS011;6145;50.192;10.064;2024-01-07T04:26:22;6.27;;;5.20;;
12163;SDS011;6145;50.192;10.064;2024-01-07T04:28:49;9.23;;;5.00;;
12163;SDS011;6145;50.192;10.064;2024-01-07T04:31:16;6.40;;;4.77;;
12163;SDS011;6145;50.192;10.064;2024-01-07T04:33:43;4.43;;;3.10;;
12163;SDS011;6145;50.192;10.064;2024-01-07T04:36:10;5.70;;;4.80;;
12163;SDS011;6145;50.192;10.064;2024-01-07T04:38:36;6.10;;;5.27;;
12163;SDS011;6145;50.192;10.064;2024-01-07T04:41:03;7.33;;;4.60;;
12163;SDS011;6145;50.192;10.064;2024-01-07T04:43:33;8.63;;;5.67;;
12163;SDS011;6145;50.192;10.064;2024-01-07T04:46:00;5.80;;;3.47;;
12163;SDS011;6145;50.192;10.064;2024-01-07T04:48:27;3.03;;;2.70;;
12163;SDS011;6145;50.192;10.064;2024-01-07T04:50:52;6.97;;;4.43;;
12163;SDS011;6145;50.192;10.064;2024-01-07T04:53:19;8.20;;;4.60;;
12163;SDS011;6145;50.192;10.064;2024-01-07T04:55:46;10.10;;;5.20;;
12163;SDS011;6145;50.192;10.064;2024-01-07T04:58:13;6.00;;;3.80;;
12163;SDS011;6145;50.192;10.064;2024-01-07T05:00:41;4.60;;;3.10;;
12163;SDS011;6145;50.192;10.064;2024-01-07T05:03:08;5.80;;;4.37;;
12163;SDS011;6145;50.192;10.064;2024-01-07T05:05:35;7.17;;;4.60;;
12163;SDS011;6145;50.192;10.064;2024-01-07T05:08:03;7.30;;;4.30;;
12163;SDS011;6145;50.192;10.064;2024-01-07T05:10:30;4.00;;;2.33;;
12163;SDS011;6145;50.192;10.064;2024-01-07T05:12:57;5.73;;;3.90;;
12163;SDS011;6145;50.192;10.064;2024-01-07T05:15:29;9.83;;;5.70;;
12163;SDS011;6145;50.192;10.064;2024-01-07T05:17:58;6.13;;;4.33;;
12163;SDS011;6145;50.192;10.064;2024-01-07T05:20:24;6.27;;;4.53;;
12163;SDS011;6145;50.192;10.064;2024-01-07T05:22:51;6.50;;;4.30;;
12163;SDS011;6145;50.192;10.064;2024-01-07T05:25:18;8.07;;;4.93;;
12163;SDS011;6145;50.192;10.064;2024-01-07T05:27:45;3.93;;;3.27;;
12163;SDS011;6145;50.192;10.064;2024-01-07T05:30:12;5.60;;;3.87;;
12163;SDS011;6145;50.192;10.064;2024-01-07T05:32:39;5.97;;;4.33;;
12163;SDS011;6145;50.192;10.064;2024-01-07T05:35:08;3.90;;;3.30;;
12163;SDS011;6145;50.192;10.064;2024-01-07T05:37:35;5.60;;;4.20;;
12163;SDS011;6145;50.192;10.064;2024-01-07T05:40:02;6.80;;;4.57;;
12163;SDS011;6145;50.192;10.064;2024-01-07T05:42:31;7.60;;;5.27;;
12163;SDS011;6145;50.192;10.064;2024-01-07T05:44:57;7.50;;;4.57;;
12163;SDS011;6145;50.192;10.064;2024-01-07T05:47:24;6.70;;;4.03;;
12163;SDS011;6145;50.192;10.064;2024-01-07T05:49:51;3.00;;;2.53;;
12163;SDS011;6145;50.192;10.064;2024-01-07T05:52:19;4.00;;;3.00;;
12163;SDS011;6145;50.192;10.064;2024-01-07T05:54:46;7.17;;;5.10;;
12163;SDS011;6145;50.192;10.064;2024-01-07T05:57:13;4.63;;;3.07;;
12163;SDS011;6145;50.192;10.064;2024-01-07T05:59:40;5.63;;;3.60;;
12163;SDS011;6145;50.192;10.064;2024-01-07T06:02:06;7.30;;;4.70;;
12163;SDS011;6145;50.192;10.064;2024-01-07T06:04:33;6.10;;;5.10;;
12163;SDS011;6145;50.192;10.064;2024-01-07T06:07:00;7.23;;;3.83;;
12163;SDS011;6145;50.192;10.064;2024-01-07T06:09:28;5.17;;;3.00;;
12163;SDS011;6145;50.192;10.064;2024-01-07T06:11:55;8.23;;;5.37;;
12163;SDS011;6145;50.192;10.064;2024-01-07T06:14:22;5.53;;;4.03;;
12163;SDS011;6145;50.192;10.064;2024-01-07T06:16:49;6.70;;;4.90;;
12163;SDS011;6145;50.192;10.064;2024-01-07T06:19:17;5.20;;;3.63;;
12163;SDS011;6145;50.192;10.064;2024-01-07T06:21:44;6.73;;;4.97;;
12163;SDS011;6145;50.192;10.064;2024-01-07T06:24:11;7.80;;;3.67;;
12163;SDS011;6145;50.192;10.064;2024-01-07T06:26:39;4.67;;;3.63;;
12163;SDS011;6145;50.192;10.064;2024-01-07T06:29:07;6.43;;;4.53;;
12163;SDS011;6145;50.192;10.064;2024-01-07T06:31:34;6.73;;;4.40;;
12163;SDS011;6145;50.192;10.064;2024-01-07T06:34:01;7.30;;;5.03;;
12163;SDS011;6145;50.192;10.064;2024-01-07T06:36:30;8.03;;;4.60;;
12163;SDS011;6145;50.192;10.064;2024-01-07T06:38:57;6.97;;;5.33;;
12163;SDS011;6145;50.192;10.064;2024-01-07T06:41:24;6.53;;;5.20;;
12163;SDS011;6145;50.192;10.064;2024-01-07T06:43:52;4.80;;;3.33;;
12163;SDS011;6145;50.192;10.064;2024-01-07T06:46:22;7.27;;;4.80;;
12163;SDS011;6145;50.192;10.064;2024-01-07T06:48:48;6.33;;;5.07;;
12163;SDS011;6145;50.192;10.064;2024-01-07T06:51:15;6.13;;;5.53;;
12163;SDS011;6145;50.192;10.064;2024-01-07T06:53:42;5.27;;;4.30;;
12163;SDS011;6145;50.192;10.064;2024-01-07T06:56:09;7.20;;;5.67;;
12163;SDS011;6145;50.192;10.064;2024-01-07T06:58:36;5.27;;;4.77;;
12163;SDS011;6145;50.192;10.064;2024-01-07T07:01:06;5.67;;;5.17;;
12163;SDS011;6145;50.192;10.064;2024-01-07T07:03:32;7.10;;;5.70;;
12163;SDS011;6145;50.192;10.064;2024-01-07T07:05:59;7.83;;;5.20;;
12163;SDS011;6145;50.192;10.064;2024-01-07T07:08:26;5.33;;;4.83;;
12163;SDS011;6145;50.192;10.064;2024-01-07T07:10:53;5.97;;;5.37;;
12163;SDS011;6145;50.192;10.064;2024-01-07T07:13:20;6.47;;;5.50;;
12163;SDS011;6145;50.192;10.064;2024-01-07T07:15:47;6.57;;;4.93;;
12163;SDS011;6145;50.192;10.064;2024-01-07T07:18:15;6.43;;;5.57;;
12163;SDS011;6145;50.192;10.064;2024-01-07T07:20:42;5.93;;;4.53;;
12163;SDS011;6145;50.192;10.064;2024-01-07T07:23:23;6.57;;;5.57;;
12163;SDS011;6145;50.192;10.064;2024-01-07T07:25:50;5.83;;;5.23;;
12163;SDS011;6145;50.192;10.064;2024-01-07T07:28:20;6.77;;;5.50;;
12163;SDS011;6145;50.192;10.064;2024-01-07T07:30:47;6.27;;;5.57;;
12163;SDS011;6145;50.192;10.064;2024-01-07T07:33:15;6.97;;;5.33;;
12163;SDS011;6145;50.192;10.064;2024-01-07T07:35:43;5.80;;;5.20;;
12163;SDS011;6145;50.192;10.064;2024-01-07T07:38:10;7.50;;;5.80;;
12163;SDS011;6145;50.192;10.064;2024-01-07T07:40:36;6.20;;;5.47;;
12163;SDS011;6145;50.192;10.064;2024-01-07T07:43:10;5.53;;;4.97;;
12163;SDS011;6145;50.192;10.064;2024-01-07T07:45:37;6.50;;;5.23;;
12163;SDS011;6145;50.192;10.064;2024-01-07T07:48:04;5.97;;;5.37;;
12163;SDS011;6145;50.192;10.064;2024-01-07T07:50:36;6.67;;;5.30;;
12163;SDS011;6145;50.192;10.064;2024-01-07T07:53:05;6.67;;;5.50;;
12163;SDS011;6145;50.192;10.064;2024-01-07T07:55:32;6.03;;;5.27;;
12163;SDS011;6145;50.192;10.064;2024-01-07T07:58:02;6.03;;;5.43;;
12163;SDS011;6145;50.192;10.064;2024-01-07T08:00:28;7.13;;;5.97;;
12163;SDS011;6145;50.192;10.064;2024-01-07T08:02:55;6.67;;;5.97;;
12163;SDS011;6145;50.192;10.064;2024-01-07T08:05:22;7.63;;;6.77;;
12163;SDS011;6145;50.192;10.064;2024-01-07T08:07:50;9.33;;;6.57;;
12163;SDS011;6145;50.192;10.064;2024-01-07T08:10:17;8.00;;;7.03;;
12163;SDS011;6145;50.192;10.064;2024-01-07T08:12:53;9.20;;;7.97;;
12163;SDS011;6145;50.192;10.064;2024-01-07T08:15:20;7.77;;;6.93;;
12163;SDS011;6145;50.192;10.064;2024-01-07T08:17:47;9.73;;;8.10;;
12163;SDS011;6145;50.192;10.064;2024-01-07T08:20:16;6.97;;;6.27;;
12163;SDS011;6145;50.192;10.064;2024-01-07T08:22:44;10.40;;;7.87;;
12163;SDS011;6145;50.192;10.064;2024-01-07T08:25:12;9.50;;;7.60;;
12163;SDS011;6145;50.192;10.064;2024-01-07T08:27:40;10.73;;;8.03;;
12163;SDS011;6145;50.192;10.064;2024-01-07T08:30:07;8.60;;;6.27;;
12163;SDS011;6145;50.192;10.064;2024-01-07T08:32:34;8.83;;;7.50;;
12163;SDS011;6145;50.192;10.064;2024-01-07T12:31:42;7.57;;;5.60;;
12163;SDS011;6145;50.192;10.064;2024-01-07T12:34:11;6.63;;;4.90;;
12163;SDS011;6145;50.192;10.064;2024-01-07T12:36:38;5.77;;;4.60;;
12163;SDS011;6145;50.192;10.064;2024-01-07T12:39:15;5.90;;;4.90;;
12163;SDS011;6145;50.192;10.064;2024-01-07T12:41:41;6.07;;;4.73;;
12163;SDS011;6145;50.192;10.064;2024-01-07T12:44:08;7.27;;;4.40;;
12163;SDS011;6145;50.192;10.064;2024-01-07T12:46:35;6.80;;;4.77;;
12163;SDS011;6145;50.192;10.064;2024-01-07T12:51:43;6.63;;;4.17;;
12163;SDS011;6145;50.192;10.064;2024-01-07T12:54:10;5.03;;;4.53;;
12163;SDS011;6145;50.192;10.064;2024-01-07T12:56:37;5.60;;;4.83;;
12163;SDS011;6145;50.192;10.064;2024-01-07T12:59:03;5.13;;;4.63;;
12163;SDS011;6145;50.192;10.064;2024-01-07T13:01:30;6.70;;;5.13;;
12163;SDS011;6145;50.192;10.064;2024-01-07T13:03:57;8.27;;;5.03;;
12163;SDS011;6145;50.192;10.064;2024-01-07T13:06:26;5.17;;;4.30;;
12163;SDS011;6145;50.192;10.064;2024-01-07T13:08:53;7.03;;;4.93;;
12163;SDS011;6145;50.192;10.064;2024-01-07T13:11:20;4.83;;;4.17;;
12163;SDS011;6145;50.192;10.064;2024-01-07T13:13:47;5.23;;;4.30;;
12163;SDS011;6145;50.192;10.064;2024-01-07T13:16:14;7.20;;;4.80;;
12163;SDS011;6145;50.192;10.064;2024-01-07T13:18:41;5.07;;;4.00;;
12163;SDS011;6145;50.192;10.064;2024-01-07T13:21:07;4.23;;;3.83;;
12163;SDS011;6145;50.192;10.064;2024-01-07T13:23:36;4.30;;;3.87;;
12163;SDS011;6145;50.192;10.064;2024-01-07T13:26:03;4.10;;;3.60;;
12163;SDS011;6145;50.192;10.064;2024-01-07T13:28:31;3.93;;;3.60;;
12163;SDS011;6145;50.192;10.064;2024-01-07T13:30:57;5.67;;;3.50;;
12163;SDS011;6145;50.192;10.064;2024-01-07T13:33:24;4.73;;;3.83;;
12163;SDS011;6145;50.192;10.064;2024-01-07T13:35:51;3.70;;;3.40;;
12163;SDS011;6145;50.192;10.064;2024-01-07T13:38:18;4.37;;;3.90;;
12163;SDS011;6145;50.192;10.064;2024-01-07T13:40:46;3.70;;;3.40;;
12163;SDS011;6145;50.192;10.064;2024-01-07T13:43:13;5.37;;;3.93;;
12163;SDS011;6145;50.192;10.064;2024-01-07T13:45:40;4.20;;;3.80;;
12163;SDS011;6145;50.192;10.064;2024-01-07T13:48:11;3.73;;;3.07;;
12163;SDS011;6145;50.192;10.064;2024-01-07T13:50:38;3.90;;;3.40;;
12163;SDS011;6145;50.192;10.064;2024-01-07T13:53:04;3.70;;;3.40;;
12163;SDS011;6145;50.192;10.064;2024-01-07T13:55:31;4.47;;;3.93;;
12163;SDS011;6145;50.192;10.064;2024-01-07T13:57:59;4.00;;;3.57;;
12163;SDS011;6145;50.192;10.064;2024-01-07T14:00:26;3.90;;;3.43;;
12163;SDS011;6145;50.192;10.064;2024-01-07T14:02:53;4.17;;;3.67;;
12163;SDS011;6145;50.192;10.064;2024-01-07T14:05:20;3.70;;;3.40;;
12163;SDS011;6145;50.192;10.064;2024-01-07T14:07:46;4.20;;;3.80;;
12163;SDS011;6145;50.192;10.064;2024-01-07T14:10:13;3.37;;;3.07;;
12163;SDS011;6145;50.192;10.064;2024-01-07T14:12:40;4.67;;;3.87;;
12163;SDS011;6145;50.192;10.064;2024-01-07T14:15:09;4.47;;;4.07;;
12163;SDS011;6145;50.192;10.064;2024-01-07T14:17:36;3.13;;;2.80;;
12163;SDS011;6145;50.192;10.064;2024-01-07T14:20:03;3.33;;;2.70;;
12163;SDS011;6145;50.192;10.064;2024-01-07T14:22:30;3.60;;;2.90;;
12163;SDS011;6145;50.192;10.064;2024-01-07T14:24:57;3.40;;;3.10;;
12163;SDS011;6145;50.192;10.064;2024-01-07T14:27:24;3.10;;;2.80;;
12163;SDS011;6145;50.192;10.064;2024-01-07T14:29:52;4.40;;;3.90;;
12163;SDS011;6145;50.192;10.064;2024-01-07T14:32:20;3.60;;;3.30;;
12163;SDS011;6145;50.192;10.064;2024-01-07T14:34:47;4.20;;;3.50;;
12163;SDS011;6145;50.192;10.064;2024-01-07T14:37:15;3.87;;;3.27;;
12163;SDS011;6145;50.192;10.064;2024-01-07T14:39:42;4.03;;;3.33;;
12163;SDS011;6145;50.192;10.064;2024-01-07T14:42:10;3.53;;;2.90;;
12163;SDS011;6145;50.192;10.064;2024-01-07T14:44:37;3.83;;;2.80;;
12163;SDS011;6145;50.192;10.064;2024-01-07T14:47:03;5.33;;;3.13;;
12163;SDS011;6145;50.192;10.064;2024-01-07T14:49:32;3.00;;;2.80;;
12163;SDS011;6145;50.192;10.064;2024-01-07T14:51:58;3.00;;;2.80;;
12163;SDS011;6145;50.192;10.064;2024-01-07T14:54:26;3.67;;;2.97;;
12163;SDS011;6145;50.192;10.064;2024-01-07T14:56:52;3.00;;;2.70;;
12163;SDS011;6145;50.192;10.064;2024-01-07T14:59:19;2.50;;;2.30;;
12163;SDS011;6145;50.192;10.064;2024-01-07T15:01:46;3.17;;;2.80;;
12163;SDS011;6145;50.192;10.064;2024-01-07T15:04:13;2.83;;;2.63;;
12163;SDS011;6145;50.192;10.064;2024-01-07T15:06:42;3.13;;;2.83;;
12163;SDS011;6145;50.192;10.064;2024-01-07T15:09:11;2.73;;;2.53;;
12163;SDS011;6145;50.192;10.064;2024-01-07T15:11:39;2.73;;;2.53;;
12163;SDS011;6145;50.192;10.064;2024-01-07T15:14:07;2.83;;;2.63;;
12163;SDS011;6145;50.192;10.064;2024-01-07T15:16:34;4.07;;;2.83;;
12163;SDS011;6145;50.192;10.064;2024-01-07T15:19:19;3.20;;;2.90;;
12163;SDS011;6145;50.192;10.064;2024-01-07T15:21:47;3.20;;;2.87;;
12163;SDS011;6145;50.192;10.064;2024-01-07T15:24:14;2.63;;;2.40;;
12163;SDS011;6145;50.192;10.064;2024-01-07T15:26:41;2.60;;;2.40;;
12163;SDS011;6145;50.192;10.064;2024-01-07T15:29:07;3.20;;;2.90;;
12163;SDS011;6145;50.192;10.064;2024-01-07T15:31:34;2.93;;;2.73;;
12163;SDS011;6145;50.192;10.064;2024-01-07T15:34:01;3.53;;;2.83;;
12163;SDS011;6145;50.192;10.064;2024-01-07T15:36:28;3.10;;;2.80;;
12163;SDS011;6145;50.192;10.064;2024-01-07T15:38:56;3.33;;;3.03;;
12163;SDS011;6145;50.192;10.064;2024-01-07T15:41:23;2.00;;;1.80;;
12163;SDS011;6145;50.192;10.064;2024-01-07T15:43:49;2.63;;;2.43;;
12163;SDS011;6145;50.192;10.064;2024-01-07T15:46:16;3.10;;;2.80;;
12163;SDS011;6145;50.192;10.064;2024-01-07T15:48:43;4.00;;;2.90;;
12163;SDS011;6145;50.192;10.064;2024-01-07T15:51:10;2.97;;;2.77;;
12163;SDS011;6145;50.192;10.064;2024-01-07T15:53:36;2.60;;;2.40;;
12163;SDS011;6145;50.192;10.064;2024-01-07T15:56:05;2.93;;;2.53;;
12163;SDS011;6145;50.192;10.064;2024-01-07T15:58:32;2.70;;;2.50;;
12163;SDS011;6145;50.192;10.064;2024-01-07T16:00:59;3.40;;;3.13;;
12163;SDS011;6145;50.192;10.064;2024-01-07T16:03:28;5.43;;;4.30;;
12163;SDS011;6145;50.192;10.064;2024-01-07T16:05:58;4.57;;;3.43;;
12163;SDS011;6145;50.192;10.064;2024-01-07T16:08:28;5.47;;;4.27;;
12163;SDS011;6145;50.192;10.064;2024-01-07T16:10:58;3.87;;;3.20;;
12163;SDS011;6145;50.192;10.064;2024-01-07T16:13:28;4.63;;;3.90;;
12163;SDS011;6145;50.192;10.064;2024-01-07T16:15:55;4.77;;;4.00;;
12163;SDS011;6145;50.192;10.064;2024-01-07T16:18:22;3.40;;;3.10;;
12163;SDS011;6145;50.192;10.064;2024-01-07T16:20:48;3.63;;;3.33;;
12163;SDS011;6145;50.192;10.064;2024-01-07T16:23:15;2.80;;;2.60;;
12163;SDS011;6145;50.192;10.064;2024-01-07T16:25:42;2.43;;;2.23;;
12163;SDS011;6145;50.192;10.064;2024-01-07T16:28:09;2.97;;;2.77;;
12163;SDS011;6145;50.192;10.064;2024-01-07T16:30:38;2.67;;;2.47;;
12163;SDS011;6145;50.192;10.064;2024-01-07T16:33:05;3.27;;;2.73;;
12163;SDS011;6145;50.192;10.064;2024-01-07T16:35:31;3.03;;;2.73;;
12163;SDS011;6145;50.192;10.064;2024-01-07T16:38:01;2.73;;;2.30;;
12163;SDS011;6145;50.192;10.064;2024-01-07T16:40:28;2.60;;;2.40;;
12163;SDS011;6145;50.192;10.064;2024-01-07T16:42:55;2.73;;;2.40;;
12163;SDS011;6145;50.192;10.064;2024-01-07T16:45:24;2.60;;;2.40;;
12163;SDS011;6145;50.192;10.064;2024-01-07T16:47:52;2.30;;;2.10;;
12163;SDS011;6145;50.192;10.064;2024-01-07T16:50:19;2.33;;;2.20;;
12163;SDS011;6145;50.192;10.064;2024-01-07T16:53:15;2.20;;;2.00;;
12163;SDS011;6145;50.192;10.064;2024-01-07T16:55:42;2.53;;;2.30;;
12163;SDS011;6145;50.192;10.064;2024-01-07T16:58:09;3.57;;;3.20;;
12163;SDS011;6145;50.192;10.064;2024-01-07T17:00:35;3.37;;;3.07;;
12163;SDS011;6145;50.192;10.064;2024-01-07T17:03:04;3.37;;;3.07;;
12163;SDS011;6145;50.192;10.064;2024-01-07T17:05:31;3.30;;;3.00;;
12163;SDS011;6145;50.192;10.064;2024-01-07T17:07:58;2.50;;;2.30;;
12163;SDS011;6145;50.192;10.064;2024-01-07T17:10:24;1.93;;;1.80;;
12163;SDS011;6145;50.192;10.064;2024-01-07T17:12:53;3.10;;;2.90;;
12163;SDS011;6145;50.192;10.064;2024-01-07T17:15:21;2.90;;;2.60;;
12163;SDS011;6145;50.192;10.064;2024-01-07T17:17:50;2.27;;;2.07;;
12163;SDS011;6145;50.192;10.064;2024-01-07T17:20:32;2.10;;;1.90;;
12163;SDS011;6145;50.192;10.064;2024-01-07T17:23:09;2.30;;;2.20;;
12163;SDS011;6145;50.192;10.064;2024-01-07T17:25:36;3.50;;;2.70;;
12163;SDS011;6145;50.192;10.064;2024-01-07T17:28:03;2.07;;;1.97;;
12163;SDS011;6145;50.192;10.064;2024-01-07T17:30:30;2.57;;;2.37;;
12163;SDS011;6145;50.192;10.064;2024-01-07T17:32:57;2.70;;;2.50;;
12163;SDS011;6145;50.192;10.064;2024-01-07T17:35:26;2.53;;;2.30;;
12163;SDS011;6145;50.192;10.064;2024-01-07T17:37:54;2.93;;;2.50;;
12163;SDS011;6145;50.192;10.064;2024-01-07T17:40:21;2.50;;;2.27;;
12163;SDS011;6145;50.192;10.064;2024-01-07T17:42:48;2.83;;;2.50;;
12163;SDS011;6145;50.192;10.064;2024-01-07T17:45:15;2.60;;;2.30;;
12163;SDS011;6145;50.192;10.064;2024-01-07T17:47:42;2.70;;;2.50;;
12163;SDS011;6145;50.192;10.064;2024-01-07T17:50:09;2.60;;;2.40;;
12163;SDS011;6145;50.192;10.064;2024-01-07T17:52:49;2.63;;;2.43;;
12163;SDS011;6145;50.192;10.064;2024-01-07T17:55:18;2.80;;;2.50;;
12163;SDS011;6145;50.192;10.064;2024-01-07T17:57:45;2.70;;;2.50;;
12163;SDS011;6145;50.192;10.064;2024-01-07T18:00:12;4.40;;;3.53;;
12163;SDS011;6145;50.192;10.064;2024-01-07T18:02:39;5.43;;;4.33;;
12163;SDS011;6145;50.192;10.064;2024-01-07T18:05:07;5.83;;;4.50;;
12163;SDS011;6145;50.192;10.064;2024-01-07T18:07:34;5.70;;;4.37;;
12163;SDS011;6145;50.192;10.064;2024-01-07T18:10:02;5.80;;;4.00;;
12163;SDS011;6145;50.192;10.064;2024-01-07T18:12:31;3.60;;;3.20;;
12163;SDS011;6145;50.192;10.064;2024-01-07T18:14:58;3.20;;;2.90;;
12163;SDS011;6145;50.192;10.064;2024-01-07T18:17:25;3.23;;;2.73;;
12163;SDS011;6145;50.192;10.064;2024-01-07T18:19:52;3.30;;;3.00;;
12163;SDS011;6145;50.192;10.064;2024-01-07T18:22:18;2.77;;;2.57;;
12163;SDS011;6145;50.192;10.064;2024-01-07T18:24:45;3.37;;;3.07;;
12163;SDS011;6145;50.192;10.064;2024-01-07T18:27:15;2.77;;;2.47;;
12163;SDS011;6145;50.192;10.064;2024-01-07T18:29:42;3.23;;;2.83;;
12163;SDS011;6145;50.192;10.064;2024-01-07T18:32:09;2.80;;;2.60;;
12163;SDS011;6145;50.192;10.064;2024-01-07T18:34:36;3.07;;;2.40;;
12163;SDS011;6145;50.192;10.064;2024-01-07T18:37:16;2.50;;;2.30;;
12163;SDS011;6145;50.192;10.064;2024-01-07T18:39:45;2.87;;;2.63;;
12163;SDS011;6145;50.192;10.064;2024-01-07T18:42:23;2.93;;;2.63;;
12163;SDS011;6145;50.192;10.064;2024-01-07T18:44:50;3.40;;;3.10;;
12163;SDS011;6145;50.192;10.064;2024-01-07T18:47:16;3.77;;;3.47;;